Time;durP1;ratioP1;P1;durP2;ratioP2;P2;SDS_P1;SDS_P2;PMS_P1;PMS_P2;Temp;Humidity;BMP_temperature;BMP_pressure;BME280_temperature;BME280_humidity;BME280_pressure;Samples;Min_cycle;Max_cycle;Signal;HPM_P1;HPM_P2
2022/06/05 00:00:30;;;;;;;;;27.50;22.50;;;;;18.53;77.68;101151.66;5094002;27;45969;-84
2022/06/05 00:03:10;;;;;;;;;24.75;18.50;;;;;18.45;77.46;101165.25;5089779;27;45584;-84
2022/06/05 00:05:51;;;;;;;;;20.25;18.50;;;;;18.45;78.11;101149.44;5093077;27;45490;-85
2022/06/05 00:08:36;;;;;;;;;25.75;21.50;;;;;18.51;78.28;101159.63;5076451;27;46978;-86
2022/06/05 00:11:02;;;;;;;;;19.50;17.75;;;;;18.49;77.69;101176.50;5076886;27;45875;-85
2022/06/05 00:13:41;;;;;;;;;22.25;20.25;;;;;18.50;78.29;101168.50;5094961;27;45351;-85
2022/06/05 00:16:06;;;;;;;;;23.50;18.75;;;;;18.55;78.05;101161.19;5073766;27;45355;-85
2022/06/05 00:18:36;;;;;;;;;20.75;18.75;;;;;18.57;77.92;101151.41;5090235;27;46250;-84
2022/06/05 00:21:03;;;;;;;;;24.25;19.00;;;;;18.57;77.77;101159.31;5094018;27;45590;-85
2022/06/05 00:23:28;;;;;;;;;18.25;16.50;;;;;18.55;78.00;101145.38;5094126;27;45477;-85
2022/06/05 00:26:08;;;;;;;;;18.25;17.75;;;;;18.59;77.48;101143.41;5075394;27;45543;-84
2022/06/05 00:28:42;;;;;;;;;21.25;17.75;;;;;18.58;77.71;101154.88;5091677;27;47460;-85
2022/06/05 00:31:26;;;;;;;;;15.25;15.00;;;;;18.58;78.05;101149.63;5098823;27;45267;-83
2022/06/05 00:33:51;;;;;;;;;16.00;14.75;;;;;18.60;77.85;101153.00;5095876;27;45821;-84
2022/06/05 00:36:41;;;;;;;;;20.50;17.00;;;;;18.59;77.78;101151.31;5096102;27;45555;-85
2022/06/05 00:39:38;;;;;;;;;19.25;16.00;;;;;18.57;78.21;101134.72;5096825;27;45414;-85
2022/06/05 00:42:10;;;;;;;;;20.25;16.75;;;;;18.56;77.88;101122.50;5078565;27;45562;-84
2022/06/05 00:44:38;;;;;;;;;16.50;14.75;;;;;18.56;77.98;101111.94;5080378;27;45275;-85
2022/06/05 00:47:04;;;;;;;;;20.75;17.00;;;;;18.52;77.62;101123.59;5096382;27;45449;-84
2022/06/05 00:49:36;;;;;;;;;18.00;17.00;;;;;18.45;77.67;101112.53;5097582;27;48122;-85
2022/06/05 00:52:01;;;;;;;;;21.00;16.50;;;;;18.37;77.32;101106.88;5079286;27;45714;-85
2022/06/05 00:54:27;;;;;;;;;20.50;15.50;;;;;18.32;78.25;101107.09;5096687;27;45473;-85
2022/06/05 00:56:52;;;;;;;;;17.50;15.75;;;;;18.29;78.14;101102.00;5096033;27;63762;-85
2022/06/05 00:59:18;;;;;;;;;15.00;14.50;;;;;18.28;78.21;101099.47;5078184;27;63404;-85
2022/06/05 01:01:44;;;;;;;;;19.50;15.75;;;;;18.26;77.94;101101.34;5077325;27;45989;-85
2022/06/05 01:04:09;;;;;;;;;14.50;14.00;;;;;18.29;78.45;101111.69;5063049;27;61910;-85
2022/06/05 01:06:34;;;;;;;;;15.00;13.25;;;;;18.28;77.98;101115.28;5095383;27;45514;-85
2022/06/05 01:09:00;;;;;;;;;13.00;13.00;;;;;18.23;78.04;101110.25;5075775;27;64338;-84
2022/06/05 01:11:40;;;;;;;;;14.25;10.25;;;;;18.16;78.25;101111.53;5093428;27;58781;-85
2022/06/05 01:14:13;;;;;;;;;14.00;12.25;;;;;18.08;78.00;101095.28;5097203;27;45394;-84
2022/06/05 01:16:46;;;;;;;;;13.25;12.75;;;;;18.04;78.44;101093.75;5079300;27;45629;-84
2022/06/05 01:19:40;;;;;;;;;12.00;12.00;;;;;18.05;78.45;101093.66;5097306;27;45684;-85
2022/06/05 01:22:37;;;;;;;;;13.25;12.00;;;;;18.09;78.25;101082.03;5097154;27;45690;-85
2022/06/05 01:25:05;;;;;;;;;14.25;11.75;;;;;18.10;78.48;101067.06;5097537;27;45537;-85
2022/06/05 01:27:31;;;;;;;;;16.25;12.25;;;;;18.14;78.60;101058.06;5096610;27;45520;-85
2022/06/05 01:30:08;;;;;;;;;12.50;11.25;;;;;18.18;78.14;101042.03;5076322;27;46274;-85
2022/06/05 01:32:40;;;;;;;;;15.75;13.75;;;;;18.22;78.40;101042.69;5077107;27;45789;-85
2022/06/05 01:35:17;;;;;;;;;17.75;12.25;;;;;18.19;78.12;101043.69;5079139;27;45388;-85
2022/06/05 01:37:46;;;;;;;;;17.75;13.75;;;;;18.17;77.84;101045.56;5076411;27;45411;-85
2022/06/05 01:40:33;;;;;;;;;14.25;13.00;;;;;18.13;77.61;101053.75;5077550;27;46609;-84
2022/06/05 01:43:03;;;;;;;;;15.25;13.50;;;;;18.10;78.24;101040.75;5093860;27;45284;-85
2022/06/05 01:45:46;;;;;;;;;12.75;12.25;;;;;18.05;78.07;101021.69;5076844;27;45402;-85
2022/06/05 01:48:17;;;;;;;;;18.00;12.50;;;;;17.99;78.13;101028.16;5091063;27;45325;-85
2022/06/05 01:50:54;;;;;;;;;15.50;12.00;;;;;17.93;77.90;101031.13;5079209;27;47465;-85
2022/06/05 01:53:22;;;;;;;;;15.50;12.25;;;;;17.87;78.08;101024.44;5078517;27;45295;-85
2022/06/05 01:56:00;;;;;;;;;17.25;13.00;;;;;17.83;78.17;101017.59;5078077;27;45380;-85
2022/06/05 01:58:33;;;;;;;;;14.00;12.00;;;;;17.80;78.03;101018.59;5055136;28;45507;-85
2022/06/05 02:01:01;;;;;;;;;16.00;13.00;;;;;17.78;77.98;101009.09;5092419;27;47619;-85
2022/06/05 02:03:35;;;;;;;;;15.00;11.25;;;;;17.78;78.31;101012.56;5074217;27;45498;-85
2022/06/05 02:06:34;;;;;;;;;13.50;11.75;;;;;17.77;77.90;101013.53;5075831;27;45419;-84
2022/06/05 02:09:04;;;;;;;;;14.25;12.00;;;;;17.75;78.17;100998.72;5071947;27;45346;-84
2022/06/05 02:11:31;;;;;;;;;13.00;11.00;;;;;17.73;78.22;100997.97;5057018;28;46386;-85
2022/06/05 02:14:00;;;;;;;;;15.50;12.25;;;;;17.69;78.33;100988.53;5072054;28;45899;-85
2022/06/05 02:16:26;;;;;;;;;13.50;10.75;;;;;17.65;77.93;100987.84;5058085;28;45682;-85
2022/06/05 02:18:52;;;;;;;;;15.75;12.50;;;;;17.61;78.26;100981.06;5038308;28;45350;-85
2022/06/05 02:21:17;;;;;;;;;15.75;12.00;;;;;17.61;78.54;100981.91;5070686;28;46205;-85
2022/06/05 02:23:42;;;;;;;;;12.75;11.75;;;;;17.59;78.00;100990.84;5057177;28;45650;-85
2022/06/05 02:26:08;;;;;;;;;17.75;14.00;;;;;17.55;78.14;100987.50;5054329;28;63155;-85
2022/06/05 02:28:34;;;;;;;;;16.00;13.25;;;;;17.54;78.44;100982.34;5074561;28;45379;-85
2022/06/05 02:31:02;;;;;;;;;16.75;16.75;;;;;17.54;78.18;100983.16;5036234;28;47206;-85
2022/06/05 02:33:56;;;;;;;;;15.00;14.00;;;;;17.58;77.97;100983.84;5067420;28;45728;-85
2022/06/05 02:36:33;;;;;;;;;16.25;13.25;;;;;17.54;78.46;100983.16;5070771;28;45459;-84
2022/06/05 02:39:29;;;;;;;;;19.25;13.00;;;;;17.54;78.55;100970.00;5071378;28;45535;-85
2022/06/05 02:42:08;;;;;;;;;15.25;13.75;;;;;17.57;78.16;100972.50;5071157;28;46380;-85
2022/06/05 02:44:46;;;;;;;;;12.50;12.50;;;;;17.61;78.54;100971.38;5073588;27;45512;-84
2022/06/05 02:47:26;;;;;;;;;14.25;12.00;;;;;17.67;78.51;100967.56;5093337;27;45525;-84
2022/06/05 02:50:01;;;;;;;;;14.00;11.50;;;;;17.71;78.29;100957.72;5093670;27;45659;-85
2022/06/05 02:52:28;;;;;;;;;12.50;10.75;;;;;17.72;78.12;100962.91;5091513;27;46248;-85
2022/06/05 02:55:04;;;;;;;;;12.00;11.25;;;;;17.73;78.02;100961.94;5081410;27;45791;-85
2022/06/05 02:57:29;;;;;;;;;13.25;11.75;;;;;17.74;78.10;100965.44;5098940;27;45349;-85
2022/06/05 02:59:55;;;;;;;;;17.00;13.75;;;;;17.74;78.01;100965.44;5094208;27;45354;-85
2022/06/05 03:05:04;;;;;;;;;14.50;11.00;;;;;17.58;78.06;100971.53;5076714;27;45410;-85
2022/06/05 03:07:30;;;;;;;;;10.00;9.00;;;;;17.54;78.36;100975.28;5097092;27;45334;-85
2022/06/05 03:09:55;;;;;;;;;11.50;10.00;;;;;17.54;77.90;100971.81;5095038;27;45327;-85
2022/06/05 03:12:20;;;;;;;;;10.25;8.75;;;;;17.53;77.79;100978.84;5090872;27;69579;-85
2022/06/05 03:14:46;;;;;;;;;15.75;10.00;;;;;17.53;78.33;100976.22;5094323;27;60407;-85
2022/06/05 03:17:12;;;;;;;;;12.00;10.00;;;;;17.53;77.73;100968.34;5091964;27;45367;-84
2022/06/05 03:19:37;;;;;;;;;15.25;11.75;;;;;17.48;78.22;100967.72;5094110;27;56467;-85
2022/06/05 03:22:03;;;;;;;;;14.00;11.25;;;;;17.43;78.45;100972.38;5093217;27;71875;-85
2022/06/05 03:24:28;;;;;;;;;14.50;11.00;;;;;17.38;78.01;100970.00;5091674;27;45253;-84
2022/06/05 03:26:53;;;;;;;;;12.25;10.25;;;;;17.34;78.57;100968.44;5094059;27;61085;-85
2022/06/05 03:29:20;;;;;;;;;11.25;10.25;;;;;17.32;78.30;100965.06;5094822;27;45485;-84
2022/06/05 03:31:46;;;;;;;;;12.50;11.00;;;;;17.29;78.65;100972.25;5093173;27;46209;-85
2022/06/05 03:34:11;;;;;;;;;10.00;10.00;;;;;17.25;78.28;100970.72;5076964;27;65186;-84
2022/06/05 03:36:37;;;;;;;;;13.75;11.00;;;;;17.21;78.53;100972.66;5074858;27;45503;-84
2022/06/05 03:39:03;;;;;;;;;12.00;10.00;;;;;17.17;78.54;100989.56;5092558;27;60195;-85
2022/06/05 03:41:28;;;;;;;;;11.50;9.00;;;;;17.17;78.90;100979.03;5093235;27;45617;-85
2022/06/05 03:43:53;;;;;;;;;10.75;7.00;;;;;17.17;78.90;100981.66;5094023;27;56143;-82
2022/06/05 03:46:19;;;;;;;;;11.00;10.75;;;;;17.14;79.11;100995.84;5096341;27;45664;-84
2022/06/05 03:48:44;;;;;;;;;12.00;10.25;;;;;17.12;79.18;100988.94;5091140;27;45418;-85
2022/06/05 03:51:12;;;;;;;;;11.50;11.25;;;;;17.14;79.10;100987.94;5092605;27;45796;-84
2022/06/05 03:53:38;;;;;;;;;16.25;11.75;;;;;17.18;78.84;100992.09;5094457;27;45393;-85
2022/06/05 03:56:15;;;;;;;;;11.50;11.50;;;;;17.24;78.74;100997.97;5076894;27;45506;-84
2022/06/05 03:58:40;;;;;;;;;12.50;12.00;;;;;17.28;78.66;100989.00;5077166;27;45210;-85
2022/06/05 04:01:09;;;;;;;;;12.50;12.00;;;;;17.33;78.58;100993.06;5093355;27;65828;-84
2022/06/05 04:03:35;;;;;;;;;10.00;10.00;;;;;17.36;78.78;100995.53;5074056;27;45464;-84
2022/06/05 04:06:00;;;;;;;;;13.25;10.50;;;;;17.35;78.36;100999.09;5090162;27;45499;-84
2022/06/05 04:08:25;;;;;;;;;14.00;11.00;;;;;17.35;78.95;101014.06;5096457;27;53869;-85
2022/06/05 04:10:51;;;;;;;;;12.25;11.00;;;;;17.36;79.10;101011.31;5061528;27;68939;-84
2022/06/05 04:13:16;;;;;;;;;10.50;10.00;;;;;17.38;78.30;101013.88;5080532;27;68274;-85
2022/06/05 04:15:41;;;;;;;;;11.75;11.75;;;;;17.34;78.78;101026.34;5095279;27;61710;-84
2022/06/05 04:18:07;;;;;;;;;15.25;11.00;;;;;17.34;78.38;101025.50;5097203;27;57543;-84
2022/06/05 04:20:33;;;;;;;;;12.00;10.25;;;;;17.39;78.62;101029.56;5079082;27;46406;-85
2022/06/05 04:22:58;;;;;;;;;11.50;9.25;;;;;17.42;78.17;101021.53;5079851;27;45363;-84
2022/06/05 04:25:24;;;;;;;;;11.75;10.75;;;;;17.42;78.69;101031.19;5098815;27;55780;-85
2022/06/05 04:27:49;;;;;;;;;14.00;11.00;;;;;17.47;78.80;101025.69;5094713;27;69728;-84
2022/06/05 04:30:14;;;;;;;;;9.25;8.50;;;;;17.44;77.98;101031.97;5094864;27;69537;-85
2022/06/05 04:32:40;;;;;;;;;11.00;11.00;;;;;17.42;78.23;101036.44;5080499;27;45305;-85
2022/06/05 04:35:06;;;;;;;;;15.00;13.00;;;;;17.45;78.31;101036.28;5079255;27;45257;-85
2022/06/05 04:37:31;;;;;;;;;12.00;11.50;;;;;17.48;78.12;101032.66;5077720;27;45324;-85
2022/06/05 04:39:56;;;;;;;;;15.50;12.50;;;;;17.49;78.18;101034.34;5095764;27;55199;-85
2022/06/05 04:42:22;;;;;;;;;12.75;11.00;;;;;17.51;77.85;101041.22;5093369;27;65820;-85
2022/06/05 04:44:47;;;;;;;;;12.75;11.75;;;;;17.52;77.98;101050.00;5078713;27;45593;-85
2022/06/05 04:47:12;;;;;;;;;15.00;11.50;;;;;17.55;78.00;101055.06;5096497;27;64465;-85
2022/06/05 04:49:38;;;;;;;;;12.75;12.00;;;;;17.56;78.19;101060.25;5096442;27;66899;-85
2022/06/05 04:52:03;;;;;;;;;12.50;11.75;;;;;17.61;78.50;101060.88;5095611;27;66509;-85
2022/06/05 04:54:29;;;;;;;;;12.75;12.00;;;;;17.65;78.12;101058.94;5095367;27;57500;-84
2022/06/05 04:56:54;;;;;;;;;13.50;11.50;;;;;17.71;78.22;101063.00;5093744;27;50388;-85
2022/06/05 04:59:19;;;;;;;;;11.75;11.50;;;;;17.78;78.16;101067.03;5095461;27;50743;-85
2022/06/05 05:01:45;;;;;;;;;13.50;12.00;;;;;17.86;78.06;101064.84;5095701;27;45447;-85
2022/06/05 05:04:12;;;;;;;;;14.75;12.50;;;;;17.96;78.10;101071.31;5095622;27;45573;-84
2022/06/05 05:06:38;;;;;;;;;13.50;9.75;;;;;18.03;77.21;101070.97;5078415;27;45427;-84
2022/06/05 05:09:03;;;;;;;;;14.50;12.00;;;;;18.07;77.67;101073.38;5078312;27;47358;-85
2022/06/05 05:11:29;;;;;;;;;13.50;11.25;;;;;18.18;77.50;101064.84;5096778;27;45227;-84
2022/06/05 05:13:55;;;;;;;;;13.75;10.25;;;;;18.26;76.85;101062.66;5094389;27;45777;-85
2022/06/05 05:16:21;;;;;;;;;16.50;10.00;;;;;18.32;77.10;101059.66;5098809;27;45293;-85
2022/06/05 05:18:46;;;;;;;;;12.50;11.75;;;;;18.41;76.71;101062.75;5067939;27;45686;-85
2022/06/05 05:21:16;;;;;;;;;14.75;13.50;;;;;18.48;76.85;101061.44;5096177;27;46953;-85
2022/06/05 05:23:42;;;;;;;;;15.50;13.75;;;;;18.55;77.26;101057.50;5076943;27;45345;-85
2022/06/05 05:26:08;;;;;;;;;12.00;10.75;;;;;18.64;77.08;101058.78;5096649;27;45339;-85
2022/06/05 05:28:33;;;;;;;;;12.25;12.25;;;;;18.69;76.75;101062.84;5097308;27;45485;-86
2022/06/05 05:30:59;;;;;;;;;15.25;9.50;;;;;18.74;76.22;101068.72;5095244;27;45435;-85
2022/06/05 05:33:24;;;;;;;;;13.00;12.25;;;;;18.77;76.14;101068.50;5095693;27;64155;-85
2022/06/05 05:35:50;;;;;;;;;16.50;12.00;;;;;18.85;76.88;101068.13;5094443;27;64768;-85
2022/06/05 05:38:15;;;;;;;;;13.00;11.00;;;;;18.95;76.54;101074.53;5095223;27;46225;-85
2022/06/05 05:43:25;;;;;;;;;14.50;13.25;;;;;19.01;74.73;101073.34;5082609;27;45327;-85
2022/06/05 05:45:50;;;;;;;;;16.00;13.25;;;;;19.02;75.44;101072.41;5095757;27;45340;-85
2022/06/05 05:48:16;;;;;;;;;16.00;14.75;;;;;19.04;75.38;101075.78;5076163;27;46601;-85
2022/06/05 05:50:45;;;;;;;;;13.00;10.00;;;;;19.08;75.39;101074.66;5077693;27;45312;-85
2022/06/05 05:53:10;;;;;;;;;12.75;10.25;;;;;19.13;75.23;101069.13;5077519;27;45589;-85
2022/06/05 05:55:36;;;;;;;;;14.75;12.50;;;;;19.16;74.96;101074.22;5079516;27;45565;-86
2022/06/05 05:58:01;;;;;;;;;15.00;12.50;;;;;19.23;75.72;101074.72;5074020;27;47219;-86
2022/06/05 06:00:27;;;;;;;;;11.75;7.50;;;;;19.34;76.31;101070.47;5090486;27;45450;-85
2022/06/05 06:02:52;;;;;;;;;16.50;10.00;;;;;19.46;75.66;101074.13;5092290;27;59341;-86
2022/06/05 06:05:20;;;;;;;;;10.50;10.50;;;;;19.54;75.36;101073.69;5093249;27;45508;-86
2022/06/05 06:07:46;;;;;;;;;15.75;11.50;;;;;19.64;75.28;101063.41;5096402;27;65838;-85
2022/06/05 06:10:11;;;;;;;;;12.50;12.50;;;;;19.75;74.71;101068.06;5093359;27;72352;-85
2022/06/05 06:12:37;;;;;;;;;14.00;13.00;;;;;19.80;74.33;101072.13;5092347;27;45484;-85
2022/06/05 06:15:02;;;;;;;;;13.00;12.00;;;;;19.82;74.48;101072.88;5095033;27;60392;-86
2022/06/05 06:17:28;;;;;;;;;15.75;13.25;;;;;19.82;74.14;101074.66;5092904;27;47452;-85
2022/06/05 06:19:53;;;;;;;;;15.75;14.00;;;;;19.80;73.66;101063.31;5093617;27;71635;-85
2022/06/05 06:22:21;;;;;;;;;11.50;10.00;;;;;19.76;73.81;101056.53;5058600;28;51274;-85
2022/06/05 06:24:47;;;;;;;;;13.75;12.50;;;;;19.75;74.36;101053.06;5074854;27;45370;-85
2022/06/05 06:27:12;;;;;;;;;15.25;12.75;;;;;19.81;74.37;101044.75;5094969;27;45450;-86
2022/06/05 06:29:38;;;;;;;;;14.25;12.75;;;;;19.90;73.88;101046.81;5073851;27;49578;-86
2022/06/05 06:32:04;;;;;;;;;13.75;11.75;;;;;19.96;73.12;101050.00;5093555;27;57602;-86
2022/06/05 06:37:27;;;;;;;;;;;;;;;;;;;;;
2022/06/05 06:39:53;;;;;;;;;14.75;12.00;;;;;20.10;73.05;101047.34;5093741;27;72939;-90
2022/06/05 06:42:18;;;;;;;;;12.50;11.00;;;;;20.17;73.83;101055.72;5093290;27;45456;-91
2022/06/05 06:44:43;;;;;;;;;12.00;11.25;;;;;20.21;73.52;101044.84;5079023;27;45400;-89
2022/06/05 06:47:09;;;;;;;;;14.50;12.00;;;;;20.26;71.88;101033.97;5078549;27;53491;-91
2022/06/05 06:49:35;;;;;;;;;14.25;11.50;;;;;20.28;72.46;101037.34;5080309;27;45405;-91
2022/06/05 06:52:03;;;;;;;;;16.25;11.50;;;;;20.29;72.69;101039.91;5078380;27;45606;-91
2022/06/05 06:54:31;;;;;;;;;16.75;11.50;;;;;20.41;72.68;101042.69;5071866;27;45500;-91
2022/06/05 06:56:56;;;;;;;;;13.75;13.25;;;;;20.53;72.72;101043.72;5077124;27;47305;-91
2022/06/05 06:59:23;;;;;;;;;15.25;12.50;;;;;20.56;72.46;101036.41;5077068;27;45317;-92
2022/06/05 07:01:49;;;;;;;;;15.50;12.75;;;;;20.64;72.24;101031.50;5080561;27;45442;-91
2022/06/05 07:04:17;;;;;;;;;22.00;19.25;;;;;20.71;71.51;101031.06;5076597;28;45481;-91
2022/06/05 07:06:42;;;;;;;;;15.75;13.75;;;;;20.69;70.28;101037.31;5063559;27;47111;-91
2022/06/05 07:09:07;;;;;;;;;15.25;12.00;;;;;20.65;71.68;101029.69;5080204;27;45739;-91
2022/06/05 07:11:33;;;;;;;;;21.00;16.00;;;;;20.64;71.27;101023.56;5062976;27;45464;-91
2022/06/05 07:13:58;;;;;;;;;14.50;11.50;;;;;20.64;71.57;101025.34;5063336;27;45470;-92
2022/06/05 07:16:24;;;;;;;;;13.25;13.00;;;;;20.67;71.65;101028.66;5060987;28;47311;-91
2022/06/05 07:18:51;;;;;;;;;16.75;13.75;;;;;20.63;70.71;101028.94;5095971;27;45332;-87
2022/06/05 07:21:24;;;;;;;;;17.00;11.00;;;;;20.60;71.39;101026.50;5094427;27;45521;-88
2022/06/05 07:23:49;;;;;;;;;14.50;12.75;;;;;20.53;69.72;101015.47;5076843;27;45505;-87
2022/06/05 07:26:17;;;;;;;;;12.00;11.25;;;;;20.52;70.75;101013.75;5078455;27;47105;-93
2022/06/05 07:28:51;;;;;;;;;12.25;11.00;;;;;20.56;71.98;101022.31;5078118;27;46067;-95
2022/06/05 07:31:17;;;;;;;;;13.50;12.00;;;;;20.62;70.48;101021.97;5093888;27;45506;-94
2022/06/05 07:33:42;;;;;;;;;13.00;11.25;;;;;20.67;70.59;101019.84;5056507;27;45672;-90
2022/06/05 07:39:14;;;;;;;;;10.25;10.25;;;;;20.94;68.89;101030.38;5062980;28;45530;-92
2022/06/05 07:42:00;;;;;;;;;;;;;;;;;;;;;
2022/06/05 07:54:27;;;;;;;;;10.00;7.25;;;;;21.82;67.83;101013.69;4881307;29;45262;-94
2022/06/05 07:57:01;;;;;;;;;7.75;7.00;;;;;21.94;65.28;101014.63;4869165;29;45580;-89
2022/06/05 07:59:28;;;;;;;;;7.00;7.00;;;;;22.06;68.75;101023.47;4878284;29;45494;-94
2022/06/05 08:02:00;;;;;;;;;9.00;9.00;;;;;22.18;66.19;101017.28;4868462;28;45857;-90
2022/06/05 08:04:26;;;;;;;;;9.25;6.50;;;;;22.18;66.67;101028.75;4860801;29;45492;-90
2022/06/05 08:06:55;;;;;;;;;7.75;7.00;;;;;22.26;67.20;101028.19;4892640;29;45685;-93
2022/06/05 08:09:20;;;;;;;;;8.00;7.00;;;;;22.38;67.60;101032.63;4874098;29;45653;-93
2022/06/05 08:11:46;;;;;;;;;10.25;7.00;;;;;22.44;64.88;101033.13;4880995;29;45531;-92
2022/06/05 08:14:14;;;;;;;;;9.50;8.00;;;;;22.48;65.94;101029.28;4879054;29;45842;-92
2022/06/05 08:16:43;;;;;;;;;7.00;7.00;;;;;22.57;64.99;101028.59;4862874;28;45283;-89
2022/06/05 08:19:11;;;;;;;;;5.00;5.00;;;;;22.60;63.28;101044.25;4889489;29;45793;-89
2022/06/05 08:21:40;;;;;;;;;5.50;5.50;;;;;22.59;62.41;101047.88;4869970;29;45563;-89
2022/06/05 08:24:08;;;;;;;;;9.25;6.00;;;;;22.54;64.60;101048.22;4899785;28;45522;-93
2022/06/05 08:26:33;;;;;;;;;9.00;6.00;;;;;22.51;62.80;101051.13;5002184;28;45576;-91
2022/06/05 08:28:59;;;;;;;;;7.25;5.00;;;;;22.47;65.36;101054.09;5069049;27;46306;-91
2022/06/05 08:31:31;;;;;;;;;8.00;6.75;;;;;22.53;64.82;101049.19;5064029;28;45482;-92
2022/06/05 08:33:57;;;;;;;;;5.75;5.75;;;;;22.59;64.84;101056.69;5079651;27;45586;-92
2022/06/05 08:36:23;;;;;;;;;7.75;5.75;;;;;22.60;64.38;101053.09;5057225;28;45303;-92
2022/06/05 08:41:53;;;;;;;;;8.00;6.25;;;;;22.32;63.65;101056.91;5079701;27;45732;-92
2022/06/05 08:44:26;;;;;;;;;7.00;7.00;;;;;22.21;64.06;101059.47;5098294;27;45461;-92
2022/06/05 08:47:01;;;;;;;;;6.00;6.00;;;;;22.17;65.21;101071.25;5078425;27;45332;-92
2022/06/05 08:49:41;;;;;;;;;8.00;8.00;;;;;22.14;64.32;101076.78;5097221;27;46242;-90
2022/06/05 08:52:26;;;;;;;;;5.00;5.00;;;;;22.01;65.67;101072.38;5098483;27;45897;-91
2022/06/05 08:55:27;;;;;;;;;7.00;7.00;;;;;21.88;65.72;101082.16;5083794;27;45489;-90
2022/06/05 08:57:57;;;;;;;;;4.75;3.00;;;;;21.75;65.51;101090.13;5088517;27;45693;-92
2022/06/05 09:00:31;;;;;;;;;6.25;5.75;;;;;21.61;65.25;101084.94;5091482;27;47223;-90
2022/06/05 09:03:30;;;;;;;;;5.25;4.25;;;;;21.53;66.01;101072.25;5080177;27;45418;-91
2022/06/05 09:06:05;;;;;;;;;5.00;5.00;;;;;21.46;66.07;101076.28;5097047;27;45290;-91
2022/06/05 09:08:36;;;;;;;;;6.00;6.00;;;;;21.49;67.07;101062.84;5074222;27;45295;-91
2022/06/05 09:11:09;;;;;;;;;7.50;6.00;;;;;21.65;67.21;101052.00;5063340;27;46428;-90
2022/06/05 09:13:56;;;;;;;;;5.75;5.75;;;;;21.87;67.47;101053.97;5082308;27;45486;-93
2022/06/05 09:16:27;;;;;;;;;7.25;6.00;;;;;22.03;65.18;101069.63;5100328;27;45357;-89
2022/06/05 09:18:52;;;;;;;;;5.75;5.50;;;;;21.99;64.93;101076.94;5069367;27;46019;-90
2022/06/05 09:21:33;;;;;;;;;6.00;6.00;;;;;21.98;66.08;101075.25;5077270;27;46876;-91
2022/06/05 09:24:02;;;;;;;;;6.00;6.00;;;;;22.01;65.51;101082.97;5082511;27;45797;-91
2022/06/05 09:26:39;;;;;;;;;7.75;6.00;;;;;22.00;65.54;101091.88;5098766;27;45513;-91
2022/06/05 09:29:20;;;;;;;;;7.25;6.00;;;;;21.99;64.95;101084.91;5081826;27;45437;-91
2022/06/05 09:32:03;;;;;;;;;7.00;6.00;;;;;22.06;64.96;101087.09;5080877;27;47096;-90
2022/06/05 09:34:38;;;;;;;;;6.00;5.50;;;;;22.08;64.81;101099.28;5112177;27;45370;-91
2022/06/05 09:37:29;;;;;;;;;5.75;5.75;;;;;22.03;65.03;101107.56;5098233;27;45447;-92
2022/06/05 09:40:00;;;;;;;;;7.75;7.75;;;;;21.93;63.69;101110.97;5081895;27;45297;-88
2022/06/05 09:42:28;;;;;;;;;7.00;6.75;;;;;21.84;65.31;101117.75;5063911;27;46020;-91
2022/06/05 09:45:12;;;;;;;;;9.00;8.00;;;;;21.81;64.94;101120.66;5097983;27;45362;-90
2022/06/05 09:47:54;;;;;;;;;8.00;6.75;;;;;21.76;63.96;101131.56;5093478;27;45311;-89
2022/06/05 09:50:23;;;;;;;;;10.00;9.00;;;;;21.71;64.70;101127.53;5079897;27;45501;-90
2022/06/05 09:52:50;;;;;;;;;7.75;7.00;;;;;21.63;63.75;101134.22;5079088;27;46608;-90
2022/06/05 09:55:16;;;;;;;;;8.25;7.25;;;;;21.50;64.76;101133.38;5097923;27;45517;-90
2022/06/05 10:00:42;;;;;;;;;9.25;9.00;;;;;21.48;64.02;101137.09;5093514;27;45497;-87
2022/06/05 10:03:13;;;;;;;;;10.25;10.00;;;;;21.63;64.66;101131.56;5090757;27;47073;-89
2022/06/05 10:05:45;;;;;;;;;11.50;9.00;;;;;21.82;63.22;101144.41;5048743;27;45679;-88
2022/06/05 10:08:22;;;;;;;;;11.75;10.00;;;;;21.79;63.27;101157.84;5077958;27;45354;-90
2022/06/05 10:10:57;;;;;;;;;11.00;10.00;;;;;21.73;63.61;101154.78;5078531;27;45622;-90
2022/06/05 10:13:44;;;;;;;;;13.75;10.50;;;;;21.67;62.81;101165.78;5060581;27;47832;-88
2022/06/05 10:16:24;;;;;;;;;15.25;12.75;;;;;21.63;63.83;101158.06;5082290;27;45344;-89
2022/06/05 10:19:14;;;;;;;;;10.50;9.75;;;;;21.53;62.95;101164.13;5056558;27;45662;-89
2022/06/05 10:21:43;;;;;;;;;13.25;11.00;;;;;21.39;63.65;101176.44;5095191;27;45499;-90
2022/06/05 10:24:38;;;;;;;;;14.25;12.25;;;;;21.27;63.63;101162.22;5076949;27;47288;-91
2022/06/05 10:27:04;;;;;;;;;13.75;11.00;;;;;21.33;62.50;101168.06;5077464;27;45868;-88
2022/06/05 10:29:40;;;;;;;;;14.00;11.00;;;;;21.26;62.73;101180.88;5077374;27;45427;-90
2022/06/05 10:32:12;;;;;;;;;14.00;11.75;;;;;21.16;63.41;101180.63;5078611;27;45522;-89
2022/06/05 10:35:13;;;;;;;;;14.50;13.00;;;;;21.04;63.32;101182.31;5079810;27;46358;-89
2022/06/05 10:37:46;;;;;;;;;18.75;12.50;;;;;20.99;64.13;101192.34;5061344;28;45559;-89
2022/06/05 10:40:24;;;;;;;;;13.75;13.75;;;;;21.10;63.19;101177.53;5040658;28;45374;-88
2022/06/05 10:43:22;;;;;;;;;12.00;12.00;;;;;21.35;62.67;101171.47;5068075;28;45442;-86
2022/06/05 10:46:24;;;;;;;;;13.50;13.00;;;;;21.55;62.68;101171.00;5045217;28;48255;-90
2022/06/05 10:49:00;;;;;;;;;15.25;13.25;;;;;21.75;61.89;101169.63;5060595;28;45309;-89
2022/06/05 10:51:40;;;;;;;;;16.50;13.25;;;;;21.88;61.56;101172.28;5041591;28;45478;-89
2022/06/05 10:54:14;;;;;;;;;15.00;14.00;;;;;21.88;61.96;101176.69;5073873;28;45583;-90
2022/06/05 10:56:45;;;;;;;;;12.25;11.50;;;;;21.88;61.46;101166.97;5057166;28;48121;-90
2022/06/05 10:59:14;;;;;;;;;12.75;12.00;;;;;21.86;60.62;101174.19;5075649;28;45898;-90
2022/06/05 11:02:02;;;;;;;;;9.75;9.25;;;;;21.66;60.39;101175.56;5057380;28;45478;-90
2022/06/05 11:04:52;;;;;;;;;13.00;10.50;;;;;21.49;61.61;101167.91;5055185;28;45942;-89
2022/06/05 11:07:36;;;;;;;;;10.75;9.50;;;;;21.37;62.07;101173.03;5069519;27;48215;-89
2022/06/05 11:13:40;;;;;;;;;11.50;10.75;;;;;21.40;62.91;101164.91;5063453;28;45340;-89
2022/06/05 11:16:16;;;;;;;;;13.00;11.00;;;;;21.55;62.22;101176.28;5082911;27;45541;-88
2022/06/05 11:18:46;;;;;;;;;15.75;13.25;;;;;21.59;61.96;101174.28;5078669;27;47111;-89
2022/06/05 11:21:17;;;;;;;;;13.00;12.25;;;;;21.59;62.60;101188.38;5092921;27;45476;-90
2022/06/05 11:23:45;;;;;;;;;13.50;12.25;;;;;21.60;62.53;101182.13;5077296;27;45452;-90
2022/06/05 11:26:21;;;;;;;;;11.50;10.25;;;;;21.77;61.90;101188.06;5079525;27;45653;-90
2022/06/05 11:29:12;;;;;;;;;16.75;15.75;;;;;21.77;61.22;101185.41;5095529;27;46523;-89
2022/06/05 11:31:55;;;;;;;;;15.00;14.00;;;;;21.71;62.14;101192.00;5078823;27;45681;-88
2022/06/05 11:34:32;;;;;;;;;18.00;14.50;;;;;21.69;62.12;101193.03;5079299;27;45441;-90
2022/06/05 11:37:12;;;;;;;;;15.25;12.75;;;;;21.81;61.56;101186.91;5095063;27;45427;-90
2022/06/05 11:39:53;;;;;;;;;14.25;12.75;;;;;21.92;62.02;101181.69;5078341;27;46067;-90
2022/06/05 11:42:35;;;;;;;;;14.25;13.50;;;;;21.88;60.59;101198.78;5095888;27;45691;-89
2022/06/05 11:45:03;;;;;;;;;14.75;14.25;;;;;21.64;61.97;101196.84;5079235;27;45324;-91
2022/06/05 11:47:42;;;;;;;;;15.25;14.00;;;;;21.36;62.23;101207.56;5094790;27;45454;-89
2022/06/05 11:50:25;;;;;;;;;15.00;13.00;;;;;21.21;62.93;101222.66;5078738;27;48005;-89
2022/06/05 11:52:56;;;;;;;;;13.75;12.25;;;;;21.03;63.62;101220.28;5095085;27;45429;-90
2022/06/05 11:55:53;;;;;;;;;16.50;14.00;;;;;20.94;63.11;101228.84;5078863;27;45447;-89
2022/06/05 11:58:30;;;;;;;;;11.00;11.00;;;;;20.87;63.52;101230.16;5109477;27;45456;-90
2022/06/05 12:01:01;;;;;;;;;12.75;10.50;;;;;20.84;62.98;101231.22;5091301;27;47271;-88
2022/06/05 12:03:48;;;;;;;;;12.50;12.00;;;;;20.96;62.60;101226.94;5068951;27;45709;-88